createdAt,value
2019-04-21T00:01:05.515Z,3.60
2019-04-21T00:03:39.825Z,2.70
2019-04-21T00:06:25.067Z,3.08
2019-04-21T00:08:57.927Z,3.25
2019-04-21T00:11:26.358Z,2.92
2019-04-21T00:13:51.484Z,3.00
2019-04-21T00:16:07.491Z,2.98
2019-04-21T00:18:44.663Z,2.77
2019-04-21T00:21:14.886Z,3.00
2019-04-21T00:23:53.794Z,2.98
2019-04-21T00:26:27.868Z,3.37
2019-04-21T00:29:03.954Z,2.87
2019-04-21T00:31:24.887Z,2.95
2019-04-21T00:33:42.706Z,2.90
2019-04-21T00:36:16.941Z,3.45
2019-04-21T00:39:14.622Z,3.00
2019-04-21T00:41:29.692Z,3.47
2019-04-21T00:43:53.268Z,2.90
2019-04-21T00:46:29.226Z,3.30
2019-04-21T00:48:57.035Z,3.42
2019-04-21T00:51:49.772Z,4.50
2019-04-21T00:56:41.318Z,4.60
2019-04-21T00:59:13.941Z,4.00
2019-04-21T01:01:43.479Z,4.80
2019-04-21T01:04:10.008Z,4.80
2019-04-21T01:06:43.423Z,5.10
2019-04-21T01:09:07.658Z,5.58
2019-04-21T01:11:47.344Z,5.20
2019-04-21T01:14:22.260Z,5.35
2019-04-21T01:16:45.311Z,5.47
2019-04-21T01:19:14.315Z,5.08
2019-04-21T01:21:24.416Z,5.58
2019-04-21T01:23:55.638Z,5.35
2019-04-21T01:26:35.278Z,5.62
2019-04-21T01:29:11.983Z,4.95
2019-04-21T01:31:44.623Z,5.42
2019-04-21T01:34:14.962Z,5.78
2019-04-21T01:36:46.096Z,5.30
2019-04-21T01:39:19.632Z,4.85
2019-04-21T01:41:50.821Z,5.53
2019-04-21T01:44:24.868Z,5.58
2019-04-21T01:46:48.060Z,5.03
2019-04-21T01:49:11.525Z,6.50
2019-04-21T01:52:02.888Z,5.80
2019-04-21T01:54:22.044Z,7.05
2019-04-21T01:56:57.020Z,5.90
2019-04-21T01:59:20.451Z,5.87
2019-04-21T02:02:00.436Z,6.65
2019-04-21T02:04:37.188Z,6.78
2019-04-21T02:07:02.822Z,6.67
2019-04-21T02:09:37.474Z,6.08
2019-04-21T02:12:09.390Z,6.78
2019-04-21T02:14:46.351Z,6.67
2019-04-21T02:17:14.763Z,6.75
2019-04-21T02:19:35.968Z,6.87
2019-04-21T02:22:04.926Z,6.97
2019-04-21T02:27:12.797Z,6.45
2019-04-21T02:29:49.761Z,6.67
2019-04-21T02:35:14.178Z,6.97
2019-04-21T02:39:57.375Z,6.10
2019-04-21T02:42:26.431Z,6.67
2019-04-21T02:45:06.630Z,7.45
2019-04-21T02:47:40.637Z,6.30
2019-04-21T02:55:01.205Z,8.23
2019-04-21T03:02:46.989Z,9.33
2019-04-21T03:05:28.786Z,11.43
2019-04-21T03:07:54.927Z,11.68
2019-04-21T03:10:31.699Z,11.63
2019-04-21T03:13:01.309Z,13.80
2019-04-21T03:15:29.297Z,12.03
2019-04-21T03:18:00.294Z,12.33
2019-04-21T03:20:23.417Z,12.60
2019-04-21T03:23:04.639Z,13.80
2019-04-21T03:30:55.778Z,14.00
2019-04-21T03:36:01.953Z,10.78
2019-04-21T03:40:26.631Z,11.55
2019-04-21T03:43:04.507Z,10.85
2019-04-21T03:45:40.500Z,12.47
2019-04-21T03:48:01.504Z,11.50
2019-04-21T03:50:33.663Z,11.60
2019-04-21T03:53:06.999Z,11.55
2019-04-21T04:06:09.912Z,9.40
2019-04-21T04:11:12.050Z,9.18
2019-04-21T04:13:53.395Z,10.65
2019-04-21T04:16:07.045Z,11.55
2019-04-21T04:18:52.887Z,10.08
2019-04-21T04:21:12.249Z,10.33
2019-04-21T04:23:45.380Z,10.58
2019-04-21T04:26:19.218Z,11.53
2019-04-21T04:28:49.982Z,12.60
2019-04-21T04:31:20.407Z,11.73
2019-04-21T04:33:48.616Z,11.48
2019-04-21T04:39:02.141Z,12.25
2019-04-21T04:43:54.601Z,12.47
2019-04-21T04:46:22.430Z,11.53
2019-04-21T04:48:54.977Z,12.88
2019-04-21T04:51:22.961Z,10.93
2019-04-21T04:53:48.799Z,11.97
2019-04-21T04:56:38.936Z,12.05
2019-04-21T05:01:51.370Z,8.98
2019-04-21T05:04:00.352Z,11.28
2019-04-21T05:06:42.620Z,11.03
2019-04-21T05:11:41.691Z,13.32
2019-04-21T05:16:41.125Z,11.85
2019-04-21T05:21:39.014Z,13.43
2019-04-21T05:23:51.081Z,10.30
2019-04-21T05:26:14.332Z,10.32
2019-04-21T05:28:44.963Z,10.65
2019-04-21T05:31:40.105Z,10.03
2019-04-21T05:34:17.129Z,11.60
2019-04-21T05:36:52.095Z,12.25
2019-04-21T05:39:24.796Z,12.60
2019-04-21T05:41:47.044Z,13.00
2019-04-21T05:44:35.561Z,14.93
2019-04-21T05:47:07.917Z,13.83
2019-04-21T05:49:29.540Z,14.03
2019-04-21T05:52:01.460Z,17.77
2019-04-21T05:57:11.934Z,21.12
2019-04-21T05:59:37.637Z,19.30
2019-04-21T06:02:21.001Z,20.45
2019-04-21T06:04:57.113Z,19.55
2019-04-21T06:07:20.097Z,17.95
2019-04-21T06:09:48.848Z,18.05
2019-04-21T06:12:08.450Z,16.93
2019-04-21T06:14:45.019Z,17.25
2019-04-21T06:17:22.546Z,17.05
2019-04-21T06:22:13.885Z,15.08
2019-04-21T06:25:06.650Z,15.40
2019-04-21T06:27:19.185Z,15.88
2019-04-21T06:29:43.918Z,15.23
2019-04-21T06:35:08.360Z,15.70
2019-04-21T06:37:41.814Z,14.80
2019-04-21T06:40:01.612Z,15.53
2019-04-21T06:42:18.594Z,15.20
2019-04-21T06:45:01.888Z,14.38
2019-04-21T06:49:50.282Z,14.90
2019-04-21T06:52:43.568Z,15.13
2019-04-21T06:55:00.066Z,14.45
2019-04-21T06:57:23.096Z,14.93
2019-04-21T06:59:49.685Z,14.30
2019-04-21T07:02:39.865Z,13.85
2019-04-21T07:04:54.360Z,14.28
2019-04-21T07:07:22.706Z,14.25
2019-04-21T07:09:59.766Z,13.88
2019-04-21T07:12:21.990Z,13.50
2019-04-21T07:15:01.967Z,14.33
2019-04-21T07:17:28.391Z,12.68
2019-04-21T07:20:02.161Z,12.67
2019-04-21T07:22:30.620Z,12.18
2019-04-21T07:25:03.008Z,12.65
2019-04-21T07:27:29.161Z,12.45
2019-04-21T07:30:04.263Z,12.20
2019-04-21T07:35:06.034Z,13.08
2019-04-21T07:37:29.989Z,13.00
2019-04-21T07:40:03.711Z,12.05
2019-04-21T07:42:29.791Z,12.53
2019-04-21T07:44:54.707Z,11.20
2019-04-21T07:47:44.489Z,11.40
2019-04-21T07:50:17.749Z,12.18
2019-04-21T07:53:12.246Z,12.13
2019-04-21T07:58:02.852Z,11.03
2019-04-21T08:00:36.771Z,11.73
2019-04-21T08:03:25.056Z,10.93
2019-04-21T08:05:38.957Z,10.90
2019-04-21T08:07:59.744Z,10.97
2019-04-21T08:10:32.981Z,11.80
2019-04-21T08:13:17.337Z,9.45
2019-04-21T08:15:40.211Z,10.65
2019-04-21T08:20:40.192Z,10.05
2019-04-21T08:23:13.261Z,10.13
2019-04-21T08:25:46.316Z,9.75
2019-04-21T08:28:11.812Z,9.75
2019-04-21T08:30:42.502Z,9.80
2019-04-21T08:33:30.630Z,9.45
2019-04-21T08:36:06.019Z,9.30
2019-04-21T08:38:13.628Z,9.60
2019-04-21T08:40:40.853Z,9.50
2019-04-21T08:43:21.199Z,8.98
2019-04-21T08:45:48.218Z,8.38
2019-04-21T08:48:17.098Z,10.00
2019-04-21T08:50:44.234Z,7.70
2019-04-21T08:53:13.883Z,9.00
2019-04-21T08:55:56.590Z,9.20
2019-04-21T09:01:24.255Z,8.50
2019-04-21T09:03:56.772Z,8.35
2019-04-21T09:06:39.901Z,9.28
2019-04-21T09:08:58.645Z,9.67
2019-04-21T09:11:23.994Z,9.03
2019-04-21T09:13:54.453Z,10.85
2019-04-21T09:16:24.929Z,10.20
2019-04-21T09:18:50.288Z,8.90
2019-04-21T09:21:36.004Z,9.48
2019-04-21T09:23:56.420Z,10.80
2019-04-21T09:26:29.439Z,9.53
2019-04-21T09:28:52.194Z,9.40
2019-04-21T09:31:12.229Z,9.80
2019-04-21T09:33:47.158Z,9.75
2019-04-21T09:36:15.401Z,8.43
2019-04-21T09:38:45.429Z,9.75
2019-04-21T09:41:17.493Z,8.55
2019-04-21T09:43:48.958Z,9.53
2019-04-21T09:46:14.283Z,8.93
2019-04-21T09:48:52.761Z,9.63
2019-04-21T09:51:13.782Z,8.07
2019-04-21T09:53:48.458Z,8.90
2019-04-21T09:56:17.857Z,8.98
2019-04-21T09:58:48.313Z,8.83
2019-04-21T10:01:22.718Z,9.55
2019-04-21T10:03:52.144Z,9.10
2019-04-21T10:06:19.543Z,8.63
2019-04-21T10:08:57.587Z,8.68
2019-04-21T10:11:20.883Z,9.07
2019-04-21T10:13:50.779Z,8.90
2019-04-21T10:16:27.245Z,9.23
2019-04-21T10:18:56.760Z,9.20
2019-04-21T10:21:27.578Z,9.20
2019-04-21T10:23:57.670Z,8.83
2019-04-21T10:26:26.586Z,8.60
2019-04-21T10:29:05.695Z,9.00
2019-04-21T10:31:27.001Z,10.43
2019-04-21T10:33:56.020Z,9.18
2019-04-21T10:36:24.972Z,8.80
2019-04-21T10:38:55.238Z,8.98
2019-04-21T10:41:25.494Z,9.80
2019-04-21T10:43:55.489Z,9.48
2019-04-21T10:46:24.771Z,9.75
2019-04-21T10:48:54.825Z,9.25
2019-04-21T10:51:25.296Z,10.15
2019-04-21T10:53:55.974Z,10.37
2019-04-21T10:56:32.624Z,9.15
2019-04-21T10:58:56.258Z,9.40
2019-04-21T11:01:27.332Z,9.95
2019-04-21T11:04:00.723Z,10.60
2019-04-21T11:06:30.786Z,9.30
2019-04-21T11:09:01.655Z,10.63
2019-04-21T11:11:30.546Z,11.23
2019-04-21T11:13:59.441Z,11.05
2019-04-21T11:16:29.044Z,10.15
2019-04-21T11:18:58.146Z,10.05
2019-04-21T11:21:29.053Z,9.75
2019-04-21T11:23:58.522Z,9.13
2019-04-21T11:26:27.669Z,9.18
2019-04-21T11:28:56.844Z,8.58
2019-04-21T11:31:27.089Z,8.43
2019-04-21T11:33:57.456Z,8.53
2019-04-21T11:36:27.112Z,8.05
2019-04-21T11:39:16.886Z,8.30
2019-04-21T11:41:31.886Z,7.83
2019-04-21T11:44:01.441Z,8.35
2019-04-21T11:46:30.742Z,8.78
2019-04-21T11:49:00.071Z,8.95
2019-04-21T11:51:29.039Z,8.93
2019-04-21T11:53:59.131Z,8.18
2019-04-21T11:56:28.190Z,9.38
2019-04-21T11:58:57.805Z,9.38
2019-04-21T12:01:27.665Z,9.50
2019-04-21T12:03:57.917Z,8.98
2019-04-21T12:06:32.186Z,8.55
2019-04-21T12:09:01.068Z,9.28
2019-04-21T12:11:29.390Z,10.43
2019-04-21T12:13:58.603Z,9.15
2019-04-21T12:16:28.653Z,9.38
2019-04-21T12:18:58.787Z,9.23
2019-04-21T12:21:31.153Z,8.40
2019-04-21T12:23:58.595Z,8.50
2019-04-21T12:26:28.339Z,7.83
2019-04-21T12:28:57.661Z,7.90
2019-04-21T12:31:45.492Z,8.00
2019-04-21T12:34:14.577Z,8.23
2019-04-21T12:36:43.715Z,9.83
2019-04-21T12:39:14.775Z,9.75
2019-04-21T12:41:44.631Z,11.08
2019-04-21T12:44:14.800Z,9.95
2019-04-21T12:46:43.800Z,10.30
2019-04-21T12:49:13.736Z,10.35
2019-04-21T12:51:44.099Z,10.45
2019-04-21T12:54:13.023Z,10.80
2019-04-21T12:56:43.254Z,10.70
2019-04-21T12:59:12.266Z,10.03
2019-04-21T13:01:41.286Z,10.43
2019-04-21T13:04:10.237Z,10.48
2019-04-21T13:06:39.413Z,9.78
2019-04-21T13:09:10.718Z,10.30
2019-04-21T13:11:39.448Z,10.50
2019-04-21T13:14:08.416Z,11.48
2019-04-21T13:16:37.324Z,12.00
2019-04-21T13:19:07.201Z,11.73
2019-04-21T13:21:36.164Z,11.63
2019-04-21T13:24:05.387Z,12.98
2019-04-21T13:26:43.074Z,11.75
2019-04-21T13:29:06.025Z,10.80
2019-04-21T13:31:36.216Z,11.78
2019-04-21T13:34:06.147Z,11.75
2019-04-21T13:37:25.579Z,11.93
2019-04-21T13:40:16.103Z,11.28
2019-04-21T13:42:40.717Z,11.12
2019-04-21T13:45:08.201Z,11.70
2019-04-21T13:47:38.569Z,12.70
2019-04-21T13:50:08.774Z,12.00
2019-04-21T13:52:38.472Z,13.00
2019-04-21T13:55:09.643Z,11.83
2019-04-21T13:57:38.855Z,11.70
2019-04-21T14:00:09.053Z,14.43
2019-04-21T14:02:38.712Z,13.78
2019-04-21T14:05:10.440Z,12.60
2019-04-21T14:07:39.000Z,13.05
2019-04-21T14:10:11.043Z,12.55
2019-04-21T14:12:40.479Z,12.20
2019-04-21T14:15:10.508Z,12.60
2019-04-21T14:17:39.379Z,11.65
2019-04-21T14:20:10.896Z,11.12
2019-04-21T14:22:40.145Z,11.03
2019-04-21T14:25:09.909Z,11.03
2019-04-21T14:27:38.836Z,12.00
2019-04-21T14:30:10.376Z,11.08
2019-04-21T14:32:40.191Z,23.22
2019-04-21T14:35:10.890Z,20.02
2019-04-21T14:37:40.492Z,43.87
2019-04-21T14:40:15.531Z,13.05
2019-04-21T14:42:40.257Z,11.38
2019-04-21T14:45:10.863Z,11.75
2019-04-21T14:47:48.270Z,10.67
2019-04-21T14:50:32.464Z,11.73
2019-04-21T14:53:09.921Z,11.50
2019-04-21T14:55:41.550Z,11.03
2019-04-21T14:58:10.595Z,10.65
2019-04-21T15:00:59.956Z,10.85
2019-04-21T15:03:29.972Z,10.43
2019-04-21T15:05:58.941Z,9.25
2019-04-21T15:08:28.969Z,10.25
2019-04-21T15:10:58.871Z,10.78
2019-04-21T15:13:28.088Z,10.65
2019-04-21T15:15:56.957Z,11.15
2019-04-21T15:18:26.421Z,10.60
2019-04-21T15:20:55.335Z,10.55
2019-04-21T15:23:26.378Z,10.10
2019-04-21T15:25:56.379Z,10.17
2019-04-21T15:28:25.750Z,10.07
2019-04-21T15:30:56.663Z,10.53
2019-04-21T15:33:26.538Z,9.40
2019-04-21T15:35:55.546Z,9.75
2019-04-21T15:38:25.530Z,10.23
2019-04-21T15:40:57.966Z,9.40
2019-04-21T15:43:26.510Z,9.80
2019-04-21T15:45:57.045Z,10.33
2019-04-21T15:48:26.707Z,9.33
2019-04-21T15:50:56.792Z,9.18
2019-04-21T15:53:27.727Z,10.03
2019-04-21T15:56:17.309Z,10.35
2019-04-21T15:58:58.814Z,9.45
2019-04-21T16:01:38.898Z,9.40
2019-04-21T16:04:08.064Z,9.00
2019-04-21T16:06:37.624Z,9.35
2019-04-21T16:09:14.157Z,9.35
2019-04-21T16:11:39.842Z,9.40
2019-04-21T16:14:10.178Z,9.75
2019-04-21T16:16:39.314Z,9.63
2019-04-21T16:19:08.313Z,10.28
2019-04-21T16:21:41.000Z,10.13
2019-04-21T16:24:08.743Z,9.20
2019-04-21T16:26:38.410Z,9.45
2019-04-21T16:29:07.416Z,8.83
2019-04-21T16:31:36.393Z,9.75
2019-04-21T16:34:05.506Z,8.70
2019-04-21T16:36:35.775Z,8.35
2019-04-21T16:39:07.310Z,8.10
2019-04-21T16:41:36.334Z,7.45
2019-04-21T16:44:05.183Z,7.58
2019-04-21T16:46:34.061Z,7.90
2019-04-21T16:49:04.187Z,8.08
2019-04-21T16:51:33.909Z,7.20
2019-04-21T16:54:04.426Z,7.12
2019-04-21T16:56:37.651Z,7.42
2019-04-21T16:59:08.536Z,7.87
2019-04-21T17:01:38.476Z,7.65
2019-04-21T17:04:08.478Z,7.05
2019-04-21T17:06:38.505Z,6.47
2019-04-21T17:09:08.615Z,6.75
2019-04-21T17:11:39.575Z,6.92
2019-04-21T17:14:27.235Z,6.77
2019-04-21T17:17:14.023Z,6.53
2019-04-21T17:19:19.373Z,7.08
2019-04-21T17:21:39.843Z,7.37
2019-04-21T17:24:10.111Z,6.95
2019-04-21T17:26:41.241Z,7.50
2019-04-21T17:29:10.515Z,7.77
2019-04-21T17:31:39.614Z,7.67
2019-04-21T17:34:13.707Z,7.55
2019-04-21T17:36:39.370Z,7.03
2019-04-21T17:39:08.923Z,7.53
2019-04-21T17:41:54.110Z,6.80
2019-04-21T17:44:08.831Z,7.73
2019-04-21T17:46:46.050Z,7.60
2019-04-21T17:49:08.653Z,6.93
2019-04-21T17:51:46.672Z,7.50
2019-04-21T17:54:25.831Z,7.33
2019-04-21T17:57:11.429Z,6.85
2019-04-21T17:59:51.021Z,6.70
2019-04-21T18:02:07.937Z,6.47
2019-04-21T18:04:42.646Z,6.83
2019-04-21T18:07:21.588Z,7.28
2019-04-21T18:12:22.651Z,6.33
2019-04-21T18:14:50.334Z,6.47
2019-04-21T18:17:08.735Z,7.27
2019-04-21T18:19:43.216Z,6.62
2019-04-21T18:22:10.801Z,7.20
2019-04-21T18:27:11.556Z,6.92
2019-04-21T18:29:40.567Z,6.40
2019-04-21T18:32:10.486Z,6.08
2019-04-21T18:34:49.857Z,6.62
2019-04-21T18:37:25.127Z,5.65
2019-04-21T18:39:55.892Z,6.05
2019-04-21T18:42:40.777Z,5.92
2019-04-21T18:48:02.657Z,6.37
2019-04-21T18:50:45.985Z,6.37
2019-04-21T18:53:39.406Z,6.60
2019-04-21T18:55:58.274Z,5.60
2019-04-21T18:58:22.302Z,5.80
2019-04-21T19:00:53.022Z,6.40
2019-04-21T19:03:28.166Z,6.40
2019-04-21T19:05:59.452Z,6.50
2019-04-21T19:08:40.460Z,6.60
2019-04-21T19:11:16.599Z,6.65
2019-04-21T19:14:17.569Z,6.22
2019-04-21T19:16:47.521Z,6.55
2019-04-21T19:19:24.938Z,6.15
2019-04-21T19:21:24.592Z,6.65
2019-04-21T19:24:15.671Z,6.12
2019-04-21T19:26:39.375Z,5.80
2019-04-21T19:29:12.508Z,6.28
2019-04-21T19:31:38.279Z,5.83
2019-04-21T19:33:57.450Z,5.85
2019-04-21T19:36:17.383Z,6.33
2019-04-21T19:38:58.394Z,5.90
2019-04-21T19:41:32.463Z,6.53
2019-04-21T19:44:07.042Z,6.28
2019-04-21T19:46:33.557Z,6.37
2019-04-21T19:49:13.461Z,6.08
2019-04-21T19:51:33.823Z,5.97
2019-04-21T19:54:00.495Z,6.92
2019-04-21T19:56:22.111Z,6.25
2019-04-21T19:58:51.137Z,5.67
2019-04-21T20:01:21.275Z,6.03
2019-04-21T20:03:55.849Z,6.78
2019-04-21T20:06:42.106Z,6.28
2019-04-21T20:09:09.630Z,5.35
2019-04-21T20:11:38.854Z,5.90
2019-04-21T20:14:40.569Z,6.17
2019-04-21T20:16:44.038Z,6.13
2019-04-21T20:19:00.564Z,6.03
2019-04-21T20:21:26.818Z,6.25
2019-04-21T20:24:03.044Z,6.47
2019-04-21T20:26:30.428Z,6.20
2019-04-21T20:29:11.182Z,6.43
2019-04-21T20:31:38.526Z,6.97
2019-04-21T20:34:17.727Z,6.58
2019-04-21T20:36:51.138Z,6.67
2019-04-21T20:39:05.953Z,6.37
2019-04-21T20:41:41.576Z,6.42
2019-04-21T20:44:20.837Z,5.78
2019-04-21T20:46:45.885Z,6.60
2019-04-21T20:49:16.506Z,6.97
2019-04-21T20:51:58.192Z,6.53
2019-04-21T20:54:20.552Z,6.58
2019-04-21T20:56:55.123Z,6.83
2019-04-21T20:59:19.387Z,6.30
2019-04-21T21:01:48.924Z,6.83
2019-04-21T21:04:19.177Z,6.23
2019-04-21T21:06:52.623Z,6.90
2019-04-21T21:09:21.995Z,6.37
2019-04-21T21:12:10.201Z,6.53
2019-04-21T21:14:29.259Z,6.53
2019-04-21T21:16:58.487Z,6.22
2019-04-21T21:19:33.342Z,6.00
2019-04-21T21:21:53.963Z,6.80
2019-04-21T21:24:38.807Z,6.27
2019-04-21T21:26:58.102Z,6.87
2019-04-21T21:29:26.432Z,6.33
2019-04-21T21:32:08.547Z,6.70
2019-04-21T21:34:38.850Z,6.60
2019-04-21T21:37:12.886Z,7.33
2019-04-21T21:39:43.831Z,7.03
2019-04-21T21:41:51.029Z,6.50
2019-04-21T21:44:21.223Z,6.87
2019-04-21T21:47:00.479Z,6.58
2019-04-21T21:49:33.702Z,7.12
2019-04-21T21:52:00.264Z,7.00
2019-04-21T21:54:20.128Z,6.83
2019-04-21T21:56:50.167Z,7.47
2019-04-21T21:59:22.899Z,7.42
2019-04-21T22:01:52.533Z,7.20
2019-04-21T22:04:26.063Z,7.22
2019-04-21T22:06:59.703Z,6.83
2019-04-21T22:09:22.035Z,6.72
2019-04-21T22:11:56.499Z,7.08
2019-04-21T22:14:25.828Z,7.30
2019-04-21T22:17:14.173Z,7.90
2019-04-21T22:19:46.930Z,7.97
2019-04-21T22:22:11.536Z,8.55
2019-04-21T22:24:45.550Z,7.85
2019-04-21T22:26:54.910Z,7.28
2019-04-21T22:29:30.291Z,7.60
2019-04-21T22:32:04.177Z,7.90
2019-04-21T22:34:33.900Z,7.42
2019-04-21T22:37:13.695Z,7.17
2019-04-21T22:39:44.986Z,7.55
2019-04-21T22:42:05.362Z,7.35
2019-04-21T22:44:28.155Z,7.67
2019-04-21T22:47:06.164Z,7.20
2019-04-21T22:49:28.605Z,7.75
2019-04-21T22:52:02.926Z,7.12
2019-04-21T22:54:34.152Z,7.35
2019-04-21T22:57:05.183Z,7.17
2019-04-21T22:59:30.566Z,6.95
2019-04-21T23:01:59.868Z,7.85
2019-04-21T23:04:34.180Z,7.58
2019-04-21T23:07:07.026Z,7.62
2019-04-21T23:09:30.883Z,7.58
2019-04-21T23:12:01.336Z,7.72
2019-04-21T23:14:33.909Z,7.53
2019-04-21T23:17:24.273Z,7.17
2019-04-21T23:19:44.876Z,8.25
2019-04-21T23:22:24.855Z,7.72
2019-04-21T23:24:54.463Z,8.00
2019-04-21T23:27:14.162Z,7.37
2019-04-21T23:30:13.665Z,7.33
2019-04-21T23:32:22.682Z,7.90
2019-04-21T23:34:37.205Z,7.60
2019-04-21T23:37:12.610Z,7.62
2019-04-21T23:39:37.585Z,7.25
2019-04-21T23:42:06.715Z,7.87
2019-04-21T23:44:41.509Z,7.70
2019-04-21T23:47:10.001Z,7.08
2019-04-21T23:49:48.242Z,6.80
2019-04-21T23:52:10.966Z,7.70
2019-04-21T23:54:37.739Z,7.37
2019-04-21T23:57:14.323Z,6.95
2019-04-21T23:59:40.966Z,7.30
